createdAt,value
2022-07-28T00:00:00.000Z,6.49
2022-07-28T00:15:00.000Z,6.49
2022-07-28T00:30:00.000Z,6.65
2022-07-28T00:45:00.000Z,7.13
2022-07-28T01:00:00.000Z,6.91
2022-07-28T01:15:00.000Z,7.14
2022-07-28T01:30:00.000Z,7.47
2022-07-28T01:45:00.000Z,7.78
2022-07-28T02:00:00.000Z,7.3
2022-07-28T02:15:00.000Z,7.92
2022-07-28T02:30:00.000Z,8.43
2022-07-28T02:45:00.000Z,7.76
2022-07-28T03:00:00.000Z,9.03
2022-07-28T03:15:00.000Z,8.87
2022-07-28T03:30:00.000Z,8.92
2022-07-28T03:45:00.000Z,9.08
2022-07-28T04:00:00.000Z,7.66
2022-07-28T04:15:00.000Z,7.92
2022-07-28T04:30:00.000Z,10.82
2022-07-28T04:45:00.000Z,7.25
2022-07-28T05:00:00.000Z,8.07
2022-07-28T05:15:00.000Z,7.22
2022-07-28T05:30:00.000Z,6.52
2022-07-28T05:45:00.000Z,6.06
2022-07-28T06:00:00.000Z,5.99
2022-07-28T06:15:00.000Z,5.78
2022-07-28T06:30:00.000Z,6.2
2022-07-28T06:45:00.000Z,4.72
2022-07-28T07:00:00.000Z,3.84
2022-07-28T07:15:00.000Z,3.93
2022-07-28T07:30:00.000Z,3.4
2022-07-28T07:45:00.000Z,3.39
2022-07-28T08:00:00.000Z,3.49
2022-07-28T08:15:00.000Z,5.12
2022-07-28T08:30:00.000Z,7.24
2022-07-28T08:45:00.000Z,7.58
2022-07-28T09:00:00.000Z,7.75
2022-07-28T09:15:00.000Z,6.2
2022-07-28T09:30:00.000Z,5.29
2022-07-28T09:45:00.000Z,5.26
2022-07-28T10:00:00.000Z,4.98
2022-07-28T10:15:00.000Z,5.21
2022-07-28T10:30:00.000Z,5.08
2022-07-28T10:45:00.000Z,5.29
2022-07-28T11:00:00.000Z,5.07
2022-07-28T11:15:00.000Z,5.16
2022-07-28T11:30:00.000Z,5.24
2022-07-28T11:45:00.000Z,5.16
2022-07-28T12:00:00.000Z,5.19
2022-07-28T12:15:00.000Z,5.47
2022-07-28T12:30:00.000Z,5.28
2022-07-28T12:45:00.000Z,5.89
2022-07-28T13:00:00.000Z,5.54
2022-07-28T13:15:00.000Z,5.47
2022-07-28T13:30:00.000Z,5.56
2022-07-28T13:45:00.000Z,5.48
2022-07-28T14:00:00.000Z,5.32
2022-07-28T14:15:00.000Z,5.71
2022-07-28T14:30:00.000Z,5.44
2022-07-28T14:45:00.000Z,5.59
2022-07-28T15:00:00.000Z,5.48
2022-07-28T15:15:00.000Z,5.51
2022-07-28T15:30:00.000Z,5.65
2022-07-28T15:45:00.000Z,5.82
2022-07-28T16:00:00.000Z,5.48
2022-07-28T16:15:00.000Z,5.96
2022-07-28T16:30:00.000Z,6.04
2022-07-28T16:45:00.000Z,6.73
2022-07-28T17:00:00.000Z,6.93
2022-07-28T17:15:00.000Z,6.94
2022-07-28T17:30:00.000Z,6.78
2022-07-28T17:45:00.000Z,7.09
2022-07-28T18:00:00.000Z,7.16
2022-07-28T18:15:00.000Z,7.09
2022-07-28T18:30:00.000Z,7.18
2022-07-28T18:45:00.000Z,7.16
2022-07-28T19:00:00.000Z,7.26
2022-07-28T19:15:00.000Z,7.02
2022-07-28T19:30:00.000Z,8.66
2022-07-28T19:45:00.000Z,8.99
2022-07-28T20:00:00.000Z,8.47
2022-07-28T20:15:00.000Z,8.46
2022-07-28T20:30:00.000Z,8.71
2022-07-28T20:45:00.000Z,7.56
2022-07-28T21:00:00.000Z,6.68
2022-07-28T21:15:00.000Z,5.06
2022-07-28T21:30:00.000Z,4.45
2022-07-28T21:45:00.000Z,3.74
2022-07-28T22:00:00.000Z,4.51
2022-07-28T22:15:00.000Z,4.35
2022-07-28T22:30:00.000Z,3.18
2022-07-28T22:45:00.000Z,5.67
2022-07-28T23:00:00.000Z,3.39
2022-07-28T23:15:00.000Z,3.72
2022-07-28T23:30:00.000Z,4.45
2022-07-28T23:45:00.000Z,3.11
